Main page
METAR-TAF:

Airports :

Gomel, Belarus

Gomel Airport

latitude: 52-31-36N, longitude: 031-01-06E, elevation: 144 m

Current weather observation

The report was made 40 minutes ago, at 07:30 UTC
Wind 10 kt from the South with gusts up to 16 kt
Temperature -2°C
Humidity 80%
Pressure 1025 hPa
Visibility 10 km or more
no clouds below 1500 m and no cumulonimbus

METAR: UMGG 070730Z 19005G08MPS CAVOK M02/M05 Q1025 R28/D NOSIG

Time: 11:10 (08:10 UTC)

Forecast

The report was made 3 hours and 10 minutes ago, at 05:00 UTC
Forecast valid from 07 at 06 UTC to 08 at 06 UTC
Wind 14 kt from the South
Visibility 10 km or more
Scattered clouds at a height of 1500 ft
Temporary
from 07 at 12 UTC to 08 at 06 UTC
Wind 17 kt from the South with gusts up to 27 kt

TAF: UMGG 070500Z 0706/0806 18007MPS 9999 SCT015 TX03/0712Z TNM02/0706Z TEMPO 0712/0806 18009G14MPS

METAR-TAF

Weather observations and forecasts of more than 4000 airports (METAR and TAF reports).

The available stations are represented by yellow and red dots on the map.

Hover mouse over dot to see the name of the station.

Then click to see weather observations and forecasts.

To change the map : click on the green buttons with a black cross to zoom in, on the green button with a dash to zoom out, or on the green arrows for adjacent maps.


METAR-TAF: